createdAt,value
2023-01-15T00:01:05.109Z,9.40
2023-01-15T00:04:23.799Z,8.80
2023-01-15T00:07:25.940Z,8.50
2023-01-15T00:10:27.584Z,8.60
2023-01-15T00:13:29.305Z,8.50
2023-01-15T00:19:32.545Z,9.40
2023-01-15T00:22:34.138Z,10.50
2023-01-15T00:25:35.805Z,13.50
2023-01-15T00:28:37.372Z,10.50
2023-01-15T00:34:41.867Z,8.40
2023-01-15T00:37:43.870Z,9.10
2023-01-15T00:40:45.394Z,8.10
2023-01-15T00:43:47.010Z,8.80
2023-01-15T00:46:48.687Z,8.20
2023-01-15T00:52:51.999Z,8.00
2023-01-15T00:55:53.652Z,7.30
2023-01-15T00:58:55.663Z,7.90
2023-01-15T01:01:57.415Z,6.60
2023-01-15T01:04:59.312Z,7.30
2023-01-15T01:08:01.370Z,6.70
2023-01-15T01:11:06.902Z,6.70
2023-01-15T01:14:10.271Z,6.70
2023-01-15T01:17:11.902Z,6.60
2023-01-15T01:20:15.637Z,6.70
2023-01-15T01:23:17.420Z,6.40
2023-01-15T01:29:21.864Z,5.90
2023-01-15T01:32:23.759Z,5.40
2023-01-15T01:35:25.475Z,5.00
2023-01-15T01:38:27.223Z,5.00
2023-01-15T01:41:29.955Z,4.30
2023-01-15T01:44:34.597Z,3.40
2023-01-15T01:47:36.197Z,3.80
2023-01-15T01:50:39.737Z,3.60
2023-01-15T01:53:41.368Z,3.40
2023-01-15T01:59:45.317Z,3.90
2023-01-15T02:02:48.345Z,3.70
2023-01-15T02:05:53.306Z,3.80
2023-01-15T02:08:54.935Z,3.70
2023-01-15T02:15:08.122Z,4.00
2023-01-15T02:18:34.034Z,4.00
2023-01-15T02:22:29.786Z,3.70
2023-01-15T02:25:47.109Z,3.80
2023-01-15T02:28:50.256Z,3.30
2023-01-15T02:31:52.396Z,3.70
2023-01-15T02:34:56.864Z,3.30
2023-01-15T02:38:01.627Z,3.70
2023-01-15T02:41:06.170Z,4.00
2023-01-15T02:44:09.166Z,3.90
2023-01-15T02:47:11.177Z,4.50
2023-01-15T02:50:16.854Z,4.00
2023-01-15T02:53:21.657Z,4.30
2023-01-15T02:56:26.049Z,4.00
2023-01-15T02:59:34.042Z,3.80
2023-01-15T03:02:44.985Z,4.30
2023-01-15T03:06:04.325Z,3.40
2023-01-15T03:09:07.030Z,3.30
2023-01-15T03:12:17.569Z,3.30
2023-01-15T03:15:20.732Z,3.40
2023-01-15T03:18:22.563Z,3.30
2023-01-15T03:21:37.186Z,3.10
2023-01-15T03:24:50.065Z,3.10
2023-01-15T03:27:54.686Z,3.60
2023-01-15T03:30:56.402Z,3.70
2023-01-15T03:34:01.239Z,3.30
2023-01-15T03:40:04.732Z,3.20
2023-01-15T03:43:09.731Z,3.20
2023-01-15T03:46:39.810Z,3.40
2023-01-15T03:49:56.648Z,3.50
2023-01-15T03:53:15.927Z,3.30
2023-01-15T03:56:20.562Z,3.40
2023-01-15T03:59:28.356Z,3.40
2023-01-15T04:02:30.515Z,3.60
2023-01-15T04:05:32.711Z,3.60
2023-01-15T04:08:39.457Z,2.90
2023-01-15T04:11:40.956Z,3.50
2023-01-15T04:17:44.224Z,3.60
2023-01-15T04:20:46.013Z,3.30
2023-01-15T04:23:47.953Z,3.60
2023-01-15T04:26:49.690Z,3.60
2023-01-15T04:29:51.275Z,3.70
2023-01-15T04:32:52.897Z,3.60
2023-01-15T04:38:55.903Z,3.60
2023-01-15T04:44:59.254Z,3.60
2023-01-15T04:48:00.840Z,3.50
2023-01-15T04:54:05.298Z,3.20
2023-01-15T04:57:07.459Z,3.20
2023-01-15T05:00:09.676Z,3.30
2023-01-15T05:03:11.524Z,3.60
2023-01-15T05:06:13.236Z,3.20
2023-01-15T05:09:14.901Z,3.40
2023-01-15T05:15:18.112Z,3.30
2023-01-15T05:21:24.467Z,3.10
2023-01-15T05:24:26.038Z,3.30
2023-01-15T05:30:29.288Z,3.40
2023-01-15T05:33:30.914Z,3.30
2023-01-15T05:39:34.333Z,3.10
2023-01-15T05:45:38.159Z,3.60
2023-01-15T05:48:39.714Z,3.10
2023-01-15T05:51:41.675Z,3.80
2023-01-15T05:54:43.255Z,3.50
2023-01-15T06:00:46.395Z,3.70
2023-01-15T06:03:47.992Z,3.90
2023-01-15T06:09:51.799Z,3.60
2023-01-15T06:15:54.900Z,3.30
2023-01-15T06:22:01.616Z,3.30
2023-01-15T06:25:03.501Z,3.00
2023-01-15T06:28:06.574Z,3.40
2023-01-15T06:31:10.603Z,3.50
2023-01-15T06:34:12.218Z,3.40
2023-01-15T06:40:15.668Z,3.40
2023-01-15T06:43:17.323Z,3.80
2023-01-15T06:49:20.488Z,4.30
2023-01-15T06:55:24.447Z,3.50
2023-01-15T06:58:26.123Z,3.40
2023-01-15T07:04:29.531Z,4.00
2023-01-15T07:07:31.265Z,4.10
2023-01-15T07:13:37.467Z,4.60
2023-01-15T07:19:40.900Z,3.60
2023-01-15T07:22:42.604Z,3.60
2023-01-15T07:25:44.226Z,3.70
2023-01-15T07:31:47.576Z,4.00
2023-01-15T07:37:51.981Z,3.60
2023-01-15T07:40:56.574Z,3.70
2023-01-15T07:43:58.354Z,4.10
2023-01-15T07:47:00.028Z,4.10
2023-01-15T07:50:02.357Z,4.00
2023-01-15T07:53:04.085Z,3.90
2023-01-15T07:56:05.925Z,4.40
2023-01-15T07:59:07.496Z,5.10
2023-01-15T08:05:11.012Z,4.60
2023-01-15T08:08:16.780Z,4.20
2023-01-15T08:11:18.353Z,3.70
2023-01-15T08:14:20.196Z,3.80
2023-01-15T08:17:21.865Z,3.70
2023-01-15T08:23:26.235Z,3.60
2023-01-15T08:29:29.684Z,3.90
2023-01-15T08:32:31.688Z,3.40
2023-01-15T08:35:33.264Z,3.70
2023-01-15T08:38:35.277Z,3.40
2023-01-15T08:41:36.818Z,4.00
2023-01-15T08:47:39.911Z,3.90
2023-01-15T08:53:43.178Z,4.20
2023-01-15T08:56:45.001Z,4.20
2023-01-15T08:59:47.647Z,4.10
2023-01-15T09:02:50.359Z,3.80
2023-01-15T09:05:52.139Z,4.00
2023-01-15T09:15:01.570Z,3.80
2023-01-15T09:18:23.581Z,3.80
2023-01-15T09:21:25.247Z,3.70
2023-01-15T09:24:26.984Z,4.10
2023-01-15T09:27:29.191Z,3.50
2023-01-15T09:30:31.024Z,3.40
2023-01-15T09:33:32.789Z,3.60
2023-01-15T09:36:35.568Z,3.60
2023-01-15T09:39:38.400Z,3.70
2023-01-15T09:42:51.731Z,3.50
2023-01-15T09:46:05.247Z,3.90
2023-01-15T09:49:23.587Z,4.00
2023-01-15T09:52:44.009Z,4.30
2023-01-15T09:55:47.812Z,4.00
2023-01-15T09:58:50.011Z,4.20
2023-01-15T10:01:52.652Z,3.90
2023-01-15T10:05:04.766Z,4.30
2023-01-15T10:08:19.736Z,3.80
2023-01-15T10:11:50.926Z,3.80
2023-01-15T10:15:15.170Z,4.40
2023-01-15T10:18:20.240Z,4.40
2023-01-15T10:21:43.575Z,4.00
2023-01-15T10:24:53.678Z,4.30
2023-01-15T10:27:57.962Z,4.10
2023-01-15T10:31:09.325Z,4.40
2023-01-15T10:34:41.284Z,4.80
2023-01-15T10:38:09.284Z,4.90
2023-01-15T10:41:19.669Z,4.80
2023-01-15T10:44:39.235Z,4.30
2023-01-15T10:47:42.866Z,4.50
2023-01-15T10:50:44.820Z,4.90
2023-01-15T10:53:51.991Z,4.50
2023-01-15T10:56:57.914Z,4.70
2023-01-15T11:00:01.144Z,5.00
2023-01-15T11:03:05.896Z,5.20
2023-01-15T11:06:21.965Z,5.30
2023-01-15T11:09:25.443Z,4.70
2023-01-15T11:12:28.867Z,4.80
2023-01-15T11:15:30.608Z,4.80
2023-01-15T11:18:36.691Z,4.70
2023-01-15T11:21:41.617Z,4.60
2023-01-15T11:24:58.358Z,5.10
2023-01-15T11:28:03.089Z,4.50
2023-01-15T11:31:04.907Z,5.10
2023-01-15T11:34:21.820Z,4.50
2023-01-15T11:37:24.273Z,5.00
2023-01-15T11:40:25.973Z,4.60
2023-01-15T11:46:32.392Z,4.60
2023-01-15T11:49:34.020Z,4.70
2023-01-15T11:52:38.064Z,4.90
2023-01-15T11:55:39.852Z,4.90
2023-01-15T11:58:46.718Z,4.80
2023-01-15T12:02:01.150Z,6.00
2023-01-15T12:05:03.792Z,5.60
2023-01-15T12:08:28.622Z,4.60
2023-01-15T12:11:40.109Z,5.10
2023-01-15T12:15:18.767Z,4.90
2023-01-15T12:18:45.519Z,4.40
2023-01-15T12:22:07.189Z,4.40
2023-01-15T12:28:22.785Z,4.80
2023-01-15T12:31:37.884Z,6.60
2023-01-15T12:34:47.024Z,8.60
2023-01-15T12:37:53.887Z,6.20
2023-01-15T12:40:59.936Z,5.30
2023-01-15T12:44:01.650Z,7.70
2023-01-15T12:47:07.636Z,5.60
2023-01-15T12:50:48.290Z,5.20
2023-01-15T12:53:53.215Z,5.10
2023-01-15T12:57:24.269Z,7.90
2023-01-15T13:00:31.089Z,5.10
2023-01-15T13:03:48.470Z,5.70
2023-01-15T13:06:58.414Z,6.00
2023-01-15T13:10:16.510Z,5.50
2023-01-15T13:13:26.556Z,6.00
2023-01-15T13:16:39.168Z,6.20
2023-01-15T13:20:10.062Z,6.20
2023-01-15T13:23:27.232Z,5.70
2023-01-15T13:27:02.625Z,5.90
2023-01-15T13:30:31.828Z,6.20
2023-01-15T13:33:44.435Z,5.90
2023-01-15T13:36:46.762Z,5.80
2023-01-15T13:39:49.453Z,5.50
2023-01-15T13:42:51.545Z,6.00
2023-01-15T13:45:53.423Z,5.70
2023-01-15T13:48:55.267Z,5.40
2023-01-15T13:51:57.047Z,5.60
2023-01-15T13:55:02.264Z,5.40
2023-01-15T13:58:17.177Z,5.30
2023-01-15T14:01:18.839Z,5.30
2023-01-15T14:04:33.915Z,5.30
2023-01-15T14:07:37.505Z,4.80
2023-01-15T14:10:39.102Z,6.20
2023-01-15T14:17:04.459Z,6.60
2023-01-15T14:20:19.781Z,8.00
2023-01-15T14:23:33.326Z,10.10
2023-01-15T14:26:47.264Z,8.70
2023-01-15T14:29:54.789Z,6.60
2023-01-15T14:33:00.758Z,6.80
2023-01-15T14:36:18.171Z,6.70
2023-01-15T14:39:31.179Z,6.90
2023-01-15T14:42:40.448Z,7.10
2023-01-15T14:45:43.776Z,6.90
2023-01-15T14:48:45.599Z,6.40
2023-01-15T14:51:49.649Z,7.00
2023-01-15T14:54:52.124Z,6.40
2023-01-15T14:58:00.894Z,6.30
2023-01-15T15:01:14.494Z,6.30
2023-01-15T15:04:22.412Z,7.00
2023-01-15T15:07:26.962Z,7.00
2023-01-15T15:10:36.247Z,7.10
2023-01-15T15:13:39.512Z,9.00
2023-01-15T15:16:45.351Z,9.40
2023-01-15T15:19:51.486Z,8.70
2023-01-15T15:22:56.725Z,8.30
2023-01-15T15:26:01.090Z,8.50
2023-01-15T15:29:11.770Z,7.80
2023-01-15T15:32:17.702Z,8.00
2023-01-15T15:35:29.822Z,8.00
2023-01-15T15:38:31.421Z,8.20
2023-01-15T15:44:42.497Z,9.30
2023-01-15T15:47:44.753Z,9.60
2023-01-15T15:50:47.886Z,11.30
2023-01-15T15:53:49.480Z,10.40
2023-01-15T15:59:55.543Z,11.70
2023-01-15T16:02:58.002Z,12.40
2023-01-15T16:06:02.098Z,11.00
2023-01-15T16:09:09.362Z,10.20
2023-01-15T16:12:12.993Z,10.50
2023-01-15T16:15:17.343Z,11.00
2023-01-15T16:18:23.919Z,10.90
2023-01-15T16:21:32.453Z,8.20
2023-01-15T16:24:34.150Z,8.10
2023-01-15T16:30:37.465Z,8.20
2023-01-15T16:33:39.542Z,8.20
2023-01-15T16:36:42.707Z,7.90
2023-01-15T16:39:45.636Z,8.70
2023-01-15T16:42:47.188Z,8.50
2023-01-15T16:46:06.170Z,8.80
2023-01-15T16:49:31.518Z,8.00
2023-01-15T16:52:57.855Z,8.40
2023-01-15T16:55:59.691Z,7.50
2023-01-15T16:59:01.594Z,8.50
2023-01-15T17:02:15.534Z,9.10
2023-01-15T17:05:22.269Z,9.30
2023-01-15T17:08:36.381Z,8.20
2023-01-15T17:11:37.985Z,8.90
2023-01-15T17:17:42.316Z,8.00
2023-01-15T17:20:43.992Z,7.80
2023-01-15T17:26:47.333Z,9.70
2023-01-15T17:29:49.252Z,10.00
2023-01-15T17:32:50.790Z,10.30
2023-01-15T17:35:52.365Z,10.00
2023-01-15T17:38:54.645Z,11.50
2023-01-15T17:41:56.916Z,13.60
2023-01-15T17:44:58.627Z,13.50
2023-01-15T17:48:00.466Z,11.80
2023-01-15T17:51:07.195Z,12.70
2023-01-15T17:54:08.816Z,6.50
2023-01-15T18:00:12.475Z,7.80
2023-01-15T18:03:18.487Z,8.50
2023-01-15T18:06:21.481Z,9.00
2023-01-15T18:09:23.557Z,10.50
2023-01-15T18:12:25.204Z,11.80
2023-01-15T18:15:26.723Z,11.60
2023-01-15T18:18:28.347Z,12.50
2023-01-15T18:24:31.597Z,14.70
2023-01-15T18:30:34.819Z,14.50
2023-01-15T18:33:36.334Z,16.20
2023-01-15T18:36:37.952Z,16.70
2023-01-15T18:39:39.658Z,17.40
2023-01-15T18:48:47.594Z,12.50
2023-01-15T18:51:49.179Z,12.50
2023-01-15T18:54:50.789Z,12.40
2023-01-15T18:57:53.671Z,10.40
2023-01-15T19:00:55.518Z,10.40
2023-01-15T19:03:58.787Z,11.10
2023-01-15T19:07:00.934Z,11.50
2023-01-15T19:10:02.608Z,11.40
2023-01-15T19:13:04.513Z,11.60
2023-01-15T19:16:06.719Z,11.80
2023-01-15T19:19:08.437Z,11.50
2023-01-15T19:22:11.292Z,12.10
2023-01-15T19:25:12.993Z,12.30
2023-01-15T19:28:19.268Z,12.00
2023-01-15T19:31:20.935Z,13.30
2023-01-15T19:37:35.435Z,9.70
2023-01-15T19:43:38.765Z,7.70
2023-01-15T19:49:42.278Z,7.00
2023-01-15T19:52:44.023Z,8.00
2023-01-15T19:58:47.124Z,7.30
2023-01-15T20:04:50.826Z,7.40
2023-01-15T20:07:52.459Z,7.50
2023-01-15T20:13:58.486Z,7.30
2023-01-15T20:17:00.112Z,7.70
2023-01-15T20:20:01.615Z,6.80
2023-01-15T20:23:03.458Z,8.20
2023-01-15T20:26:07.656Z,7.30
2023-01-15T20:29:09.406Z,6.40
2023-01-15T20:32:11.030Z,6.60
2023-01-15T20:35:15.318Z,7.00
2023-01-15T20:38:16.912Z,7.90
2023-01-15T20:41:18.591Z,7.20
2023-01-15T20:44:20.107Z,6.80
2023-01-15T20:47:27.130Z,7.70
2023-01-15T20:50:30.606Z,6.70
2023-01-15T20:53:33.997Z,6.40
2023-01-15T20:56:35.627Z,6.40
2023-01-15T20:59:37.313Z,7.80
2023-01-15T21:05:40.512Z,9.80
2023-01-15T21:08:42.725Z,10.70
2023-01-15T21:11:44.282Z,7.50
2023-01-15T21:14:46.109Z,7.20
2023-01-15T21:17:47.852Z,6.70
2023-01-15T21:23:53.245Z,6.00
2023-01-15T21:26:55.150Z,6.70
2023-01-15T21:29:56.771Z,7.20
2023-01-15T21:32:58.411Z,7.30
2023-01-15T21:36:08.437Z,7.80
2023-01-15T21:39:14.696Z,7.80
2023-01-15T21:42:18.448Z,7.50
2023-01-15T21:45:20.227Z,6.40
2023-01-15T21:48:21.868Z,6.10
2023-01-15T21:51:25.272Z,6.90
2023-01-15T21:54:27.181Z,6.70
2023-01-15T21:57:29.968Z,7.00
2023-01-15T22:00:31.566Z,7.70
2023-01-15T22:03:36.312Z,7.10
2023-01-15T22:06:38.173Z,7.10
2023-01-15T22:09:39.801Z,6.70
2023-01-15T22:15:43.053Z,6.10
2023-01-15T22:18:44.792Z,7.50
2023-01-15T22:21:55.330Z,7.40
2023-01-15T22:24:56.920Z,6.60
2023-01-15T22:27:58.509Z,6.60
2023-01-15T22:31:00.186Z,7.70
2023-01-15T22:37:03.345Z,9.10
2023-01-15T22:40:05.670Z,7.90
2023-01-15T22:43:07.206Z,7.90
2023-01-15T22:46:13.010Z,8.10
2023-01-15T22:49:14.577Z,7.70
2023-01-15T22:55:17.863Z,8.20
2023-01-15T22:58:19.355Z,8.50
2023-01-15T23:01:22.224Z,7.80
2023-01-15T23:04:24.758Z,7.90
2023-01-15T23:07:27.647Z,8.50
2023-01-15T23:13:31.419Z,8.90
2023-01-15T23:16:32.999Z,9.00
2023-01-15T23:19:34.715Z,7.90
2023-01-15T23:22:36.537Z,8.10
2023-01-15T23:25:38.117Z,7.30
2023-01-15T23:28:40.154Z,7.60
2023-01-15T23:31:41.846Z,7.50
2023-01-15T23:34:43.382Z,7.00
2023-01-15T23:37:45.100Z,7.10
2023-01-15T23:40:46.738Z,6.50
2023-01-15T23:43:48.327Z,8.00
2023-01-15T23:46:49.980Z,7.30
2023-01-15T23:52:53.134Z,6.80
2023-01-15T23:55:57.468Z,6.30
2023-01-15T23:58:59.949Z,7.00
